createdAt,value
2022-09-12T00:01:11.738Z,971.82
2022-09-12T00:11:11.747Z,971.80
2022-09-12T00:21:11.949Z,971.73
2022-09-12T00:31:12.211Z,971.70
2022-09-12T00:41:12.300Z,971.62
2022-09-12T00:51:12.441Z,971.54
2022-09-12T01:01:12.714Z,971.50
2022-09-12T01:11:12.810Z,971.31
2022-09-12T01:21:13.016Z,971.24
2022-09-12T01:31:14.004Z,971.15
2022-09-12T01:41:13.302Z,971.17
2022-09-12T01:51:13.446Z,971.24
2022-09-12T02:01:13.660Z,971.21
2022-09-12T02:11:13.745Z,971.13
2022-09-12T02:21:13.957Z,970.94
2022-09-12T02:31:14.128Z,970.89
2022-09-12T02:41:14.336Z,970.85
2022-09-12T02:51:14.477Z,970.66
2022-09-12T03:01:14.724Z,970.72
2022-09-12T03:11:14.794Z,970.66
2022-09-12T03:21:15.215Z,970.61
2022-09-12T03:31:15.984Z,970.72
2022-09-12T03:41:15.276Z,970.70
2022-09-12T03:51:15.418Z,970.84
2022-09-12T04:01:15.765Z,970.72
2022-09-12T04:11:15.701Z,970.77
2022-09-12T04:21:15.891Z,970.78
2022-09-12T04:31:16.056Z,970.75
2022-09-12T04:41:16.178Z,970.73
2022-09-12T04:51:16.365Z,970.65
2022-09-12T05:01:16.646Z,970.72
2022-09-12T05:11:16.700Z,970.74
2022-09-12T05:21:16.866Z,970.87
2022-09-12T05:31:17.041Z,970.85
2022-09-12T05:41:20.857Z,970.91
2022-09-12T05:51:18.442Z,971.02
2022-09-12T06:01:17.715Z,970.92
2022-09-12T06:11:17.750Z,970.83
2022-09-12T06:21:17.955Z,970.80
2022-09-12T06:31:18.111Z,970.93
2022-09-12T06:41:18.318Z,970.85
2022-09-12T06:51:18.477Z,970.77
2022-09-12T07:01:18.692Z,970.81
2022-09-12T07:11:18.847Z,970.80
2022-09-12T07:21:19.026Z,970.83
2022-09-12T07:31:19.313Z,970.81
2022-09-12T07:41:19.404Z,970.64
2022-09-12T07:51:19.562Z,970.71
2022-09-12T08:01:19.827Z,970.74
2022-09-12T08:11:19.873Z,970.80
2022-09-12T08:21:20.093Z,970.77
2022-09-12T08:31:20.255Z,970.74
2022-09-12T08:41:20.451Z,970.68
2022-09-12T08:51:20.594Z,970.56
2022-09-12T09:01:20.898Z,970.14
2022-09-12T09:11:20.944Z,970.25
2022-09-12T09:21:21.137Z,970.13
2022-09-12T09:31:21.409Z,970.15
2022-09-12T09:41:21.490Z,970.19
2022-09-12T09:51:21.641Z,970.25
2022-09-12T10:01:21.861Z,970.16
2022-09-12T10:11:22.036Z,970.11
2022-09-12T10:21:22.222Z,970.05
2022-09-12T10:31:22.413Z,969.94
2022-09-12T10:41:22.655Z,970.04
2022-09-12T10:51:22.801Z,969.96
2022-09-12T11:01:23.004Z,969.97
2022-09-12T11:11:23.172Z,969.83
2022-09-12T11:21:23.371Z,969.73
2022-09-12T11:31:23.593Z,969.67
2022-09-12T11:41:23.904Z,969.57
2022-09-12T11:51:24.157Z,969.48
2022-09-12T12:01:24.171Z,969.40
2022-09-12T12:11:24.148Z,969.23
2022-09-12T12:21:24.399Z,969.15
2022-09-12T12:31:24.612Z,969.14
2022-09-12T12:41:24.701Z,969.01
2022-09-12T12:51:24.893Z,969.13
2022-09-12T13:01:25.036Z,968.93
2022-09-12T13:11:25.067Z,968.80
2022-09-12T13:21:25.258Z,968.85
2022-09-12T13:31:25.492Z,968.69
2022-09-12T13:41:25.587Z,968.61
2022-09-12T13:51:25.717Z,968.50
2022-09-12T14:01:25.986Z,968.46
2022-09-12T14:11:26.044Z,968.27
2022-09-12T14:21:26.281Z,968.20
2022-09-12T14:31:26.439Z,968.16
2022-09-12T14:41:26.507Z,968.09
2022-09-12T14:51:26.653Z,968.04
2022-09-12T15:01:26.957Z,967.95
2022-09-12T15:11:27.008Z,967.96
2022-09-12T15:21:27.198Z,967.90
2022-09-12T15:31:27.472Z,967.81
2022-09-12T15:41:27.898Z,967.77
2022-09-12T15:51:27.698Z,967.78
2022-09-12T16:01:28.235Z,967.64
2022-09-12T16:11:28.078Z,967.71
2022-09-12T16:21:28.334Z,967.48
2022-09-12T16:31:28.446Z,967.38
2022-09-12T16:41:28.859Z,967.32
2022-09-12T16:51:28.682Z,967.36
2022-09-12T17:01:29.006Z,967.36
2022-09-12T17:11:29.457Z,967.45
2022-09-12T17:21:29.192Z,967.54
2022-09-12T17:31:29.762Z,967.41
2022-09-12T17:41:29.511Z,967.56
2022-09-12T17:51:29.857Z,967.68
2022-09-12T18:01:29.967Z,967.74
2022-09-12T18:11:30.017Z,967.77
2022-09-12T18:21:30.226Z,967.78
2022-09-12T18:31:30.462Z,967.71
2022-09-12T18:41:30.568Z,967.80
2022-09-12T18:51:30.787Z,967.81
2022-09-12T19:01:30.962Z,967.81
2022-09-12T19:11:31.012Z,967.83
2022-09-12T19:21:31.208Z,967.81
2022-09-12T19:31:31.452Z,967.68
2022-09-12T19:41:31.526Z,967.61
2022-09-12T19:51:31.675Z,967.54
2022-09-12T20:01:31.901Z,967.61
2022-09-12T20:11:32.052Z,967.60
2022-09-12T20:21:32.453Z,967.69
2022-09-12T20:31:32.440Z,967.60
2022-09-12T20:41:32.540Z,967.60
2022-09-12T20:51:32.699Z,967.69
2022-09-12T21:01:33.135Z,967.48
2022-09-12T21:11:33.063Z,967.31
2022-09-12T21:21:33.274Z,967.35
2022-09-12T21:31:33.528Z,967.48
2022-09-12T21:41:33.823Z,967.26
2022-09-12T21:51:33.778Z,967.46
2022-09-12T22:01:33.964Z,967.53
2022-09-12T22:11:34.325Z,967.48
2022-09-12T22:21:34.298Z,967.24
2022-09-12T22:31:34.529Z,967.09
2022-09-12T22:41:34.628Z,966.97
2022-09-12T22:51:34.782Z,966.72
2022-09-12T23:01:34.966Z,966.64
2022-09-12T23:11:35.112Z,966.78
2022-09-12T23:21:35.380Z,966.72
2022-09-12T23:31:36.321Z,966.93
2022-09-12T23:41:35.643Z,966.75
2022-09-12T23:51:35.795Z,966.83
